createdAt,value
2022-10-02T00:02:37.191Z,3.30
2022-10-02T00:05:11.741Z,3.85
2022-10-02T00:07:58.633Z,3.00
2022-10-02T00:10:44.725Z,3.38
2022-10-02T00:13:22.673Z,2.80
2022-10-02T00:15:50.740Z,2.55
2022-10-02T00:18:24.624Z,3.20
2022-10-02T00:21:34.186Z,2.92
2022-10-02T00:24:03.659Z,2.38
2022-10-02T00:27:24.922Z,2.70
2022-10-02T00:29:58.607Z,2.63
2022-10-02T00:32:46.588Z,2.58
2022-10-02T00:36:06.456Z,2.75
2022-10-02T00:38:51.989Z,3.10
2022-10-02T00:41:54.182Z,2.58
2022-10-02T00:45:02.938Z,3.38
2022-10-02T00:48:12.497Z,2.60
2022-10-02T00:50:53.580Z,3.30
2022-10-02T00:53:33.102Z,2.55
2022-10-02T00:56:20.011Z,2.60
2022-10-02T00:59:07.803Z,2.40
2022-10-02T01:01:42.458Z,2.70
2022-10-02T01:04:13.387Z,2.75
2022-10-02T01:06:40.629Z,2.92
2022-10-02T01:09:07.717Z,3.00
2022-10-02T01:11:35.486Z,2.92
2022-10-02T01:14:02.845Z,2.38
2022-10-02T01:16:31.525Z,2.45
2022-10-02T01:18:58.726Z,3.05
2022-10-02T01:21:53.340Z,2.75
2022-10-02T01:24:32.836Z,2.53
2022-10-02T01:26:59.716Z,3.03
2022-10-02T01:29:26.601Z,2.47
2022-10-02T01:31:53.847Z,2.35
2022-10-02T01:34:21.943Z,2.38
2022-10-02T01:36:49.350Z,2.05
2022-10-02T01:39:16.246Z,2.30
2022-10-02T01:41:45.811Z,2.55
2022-10-02T01:44:14.969Z,2.47
2022-10-02T01:47:20.787Z,2.30
2022-10-02T01:50:09.817Z,2.30
2022-10-02T01:52:49.010Z,2.75
2022-10-02T01:55:24.855Z,2.63
2022-10-02T01:58:00.112Z,2.80
2022-10-02T02:00:38.231Z,2.50
2022-10-02T02:03:32.591Z,2.75
2022-10-02T02:06:33.966Z,2.80
2022-10-02T02:09:17.189Z,2.70
2022-10-02T02:12:08.766Z,2.33
2022-10-02T02:14:46.858Z,2.60
2022-10-02T02:17:23.116Z,2.17
2022-10-02T02:20:02.050Z,2.20
2022-10-02T02:22:34.385Z,2.05
2022-10-02T02:25:11.092Z,2.90
2022-10-02T02:27:49.302Z,2.72
2022-10-02T02:30:17.747Z,2.00
2022-10-02T02:32:55.916Z,2.17
2022-10-02T02:35:41.474Z,2.90
2022-10-02T02:38:14.926Z,1.95
2022-10-02T02:40:44.777Z,2.05
2022-10-02T02:43:17.942Z,1.48
2022-10-02T02:45:55.266Z,2.25
2022-10-02T02:48:29.120Z,1.80
2022-10-02T02:51:11.981Z,1.80
2022-10-02T02:53:53.772Z,1.90
2022-10-02T02:56:22.631Z,2.20
2022-10-02T02:58:52.556Z,2.20
2022-10-02T03:01:19.704Z,2.13
2022-10-02T03:03:48.443Z,1.83
2022-10-02T03:06:21.815Z,1.88
2022-10-02T03:08:51.606Z,2.22
2022-10-02T03:11:33.536Z,2.00
2022-10-02T03:14:09.813Z,2.03
2022-10-02T03:16:43.865Z,2.30
2022-10-02T03:19:49.549Z,2.00
2022-10-02T03:22:44.369Z,1.73
2022-10-02T03:25:13.946Z,2.15
2022-10-02T03:27:51.206Z,2.53
2022-10-02T03:30:22.009Z,2.05
2022-10-02T03:32:53.488Z,1.63
2022-10-02T03:35:23.692Z,1.80
2022-10-02T03:37:58.659Z,2.55
2022-10-02T03:40:26.327Z,1.63
2022-10-02T03:42:58.976Z,2.20
2022-10-02T03:45:46.605Z,2.20
2022-10-02T03:48:14.618Z,1.77
2022-10-02T03:50:41.520Z,1.90
2022-10-02T03:53:35.187Z,2.15
2022-10-02T03:56:27.387Z,2.10
2022-10-02T03:58:57.487Z,1.73
2022-10-02T04:01:29.741Z,1.73
2022-10-02T04:04:10.120Z,1.77
2022-10-02T04:07:04.662Z,1.92
2022-10-02T04:09:44.619Z,2.10
2022-10-02T04:12:16.767Z,1.65
2022-10-02T04:14:51.682Z,1.75
2022-10-02T04:17:32.320Z,2.22
2022-10-02T04:20:21.661Z,2.35
2022-10-02T04:23:02.227Z,2.42
2022-10-02T04:25:39.411Z,2.88
2022-10-02T04:28:13.402Z,2.60
2022-10-02T04:30:40.293Z,2.30
2022-10-02T04:33:17.687Z,2.72
2022-10-02T04:36:02.487Z,2.70
2022-10-02T04:38:54.453Z,1.95
2022-10-02T04:42:02.624Z,2.50
2022-10-02T04:44:47.843Z,2.55
2022-10-02T04:47:29.222Z,2.83
2022-10-02T04:50:36.518Z,2.58
2022-10-02T04:53:29.666Z,2.10
2022-10-02T04:58:41.335Z,3.10
2022-10-02T05:01:19.153Z,2.47
2022-10-02T05:04:18.503Z,2.85
2022-10-02T05:07:09.837Z,2.38
2022-10-02T05:09:47.015Z,3.17
2022-10-02T05:12:38.787Z,2.53
2022-10-02T05:15:35.815Z,2.70
2022-10-02T05:18:20.931Z,2.53
2022-10-02T05:21:29.691Z,3.35
2022-10-02T05:24:08.033Z,3.05
2022-10-02T05:26:58.065Z,2.50
2022-10-02T05:29:24.887Z,3.15
2022-10-02T05:32:09.049Z,3.30
2022-10-02T05:34:54.604Z,2.58
2022-10-02T05:37:58.117Z,3.45
2022-10-02T05:40:36.483Z,2.83
2022-10-02T05:43:14.586Z,2.78
2022-10-02T05:45:50.211Z,3.53
2022-10-02T05:48:18.828Z,3.22
2022-10-02T05:50:50.490Z,3.22
2022-10-02T05:53:40.244Z,3.38
2022-10-02T05:56:22.052Z,4.20
2022-10-02T05:58:55.614Z,3.92
2022-10-02T06:01:38.069Z,3.55
2022-10-02T06:04:33.653Z,3.80
2022-10-02T06:07:09.667Z,4.13
2022-10-02T06:09:45.392Z,3.20
2022-10-02T06:12:26.886Z,3.20
2022-10-02T06:15:05.047Z,3.10
2022-10-02T06:17:45.756Z,3.10
2022-10-02T06:20:39.515Z,2.50
2022-10-02T06:23:25.500Z,2.78
2022-10-02T06:26:17.042Z,2.60
2022-10-02T06:29:19.255Z,2.28
2022-10-02T06:31:54.796Z,1.77
2022-10-02T06:34:22.746Z,2.55
2022-10-02T06:37:27.901Z,2.00
2022-10-02T06:40:06.896Z,1.73
2022-10-02T06:43:05.150Z,1.80
2022-10-02T06:45:41.533Z,1.73
2022-10-02T06:48:38.512Z,1.88
2022-10-02T06:51:28.488Z,1.98
2022-10-02T06:54:04.093Z,2.05
2022-10-02T06:56:40.682Z,2.22
2022-10-02T06:59:35.511Z,1.90
2022-10-02T07:02:23.919Z,2.35
2022-10-02T07:05:22.981Z,2.08
2022-10-02T07:07:52.937Z,2.22
2022-10-02T07:10:43.326Z,2.60
2022-10-02T07:13:20.291Z,2.40
2022-10-02T07:16:19.857Z,2.53
2022-10-02T07:19:18.371Z,2.38
2022-10-02T07:21:58.772Z,2.60
2022-10-02T07:24:47.580Z,2.35
2022-10-02T07:27:15.024Z,2.58
2022-10-02T07:30:06.040Z,2.53
2022-10-02T07:33:02.997Z,2.30
2022-10-02T07:35:47.713Z,3.10
2022-10-02T07:38:43.313Z,2.22
2022-10-02T07:41:31.906Z,2.83
2022-10-02T07:44:22.213Z,2.15
2022-10-02T07:47:17.157Z,2.28
2022-10-02T07:49:44.060Z,2.42
2022-10-02T07:53:02.486Z,2.53
2022-10-02T07:55:32.437Z,2.42
2022-10-02T07:58:14.161Z,2.25
2022-10-02T08:00:53.779Z,2.42
2022-10-02T08:03:34.011Z,1.98
2022-10-02T08:06:02.151Z,2.35
2022-10-02T08:08:51.392Z,2.20
2022-10-02T08:11:49.226Z,2.08
2022-10-02T08:14:40.259Z,2.03
2022-10-02T08:17:40.041Z,2.30
2022-10-02T08:20:31.342Z,2.40
2022-10-02T08:23:08.143Z,2.17
2022-10-02T08:25:43.262Z,2.90
2022-10-02T08:28:22.470Z,2.70
2022-10-02T08:30:49.544Z,2.50
2022-10-02T08:33:20.260Z,2.95
2022-10-02T08:35:55.853Z,3.38
2022-10-02T08:39:01.423Z,2.72
2022-10-02T08:42:28.286Z,3.42
2022-10-02T08:45:18.015Z,2.40
2022-10-02T08:48:23.346Z,2.40
2022-10-02T08:51:12.549Z,2.83
2022-10-02T08:57:16.746Z,2.20
2022-10-02T09:00:14.454Z,2.75
2022-10-02T09:03:25.139Z,2.90
2022-10-02T09:06:38.600Z,3.20
2022-10-02T09:12:27.181Z,2.55
2022-10-02T09:15:10.005Z,2.55
2022-10-02T09:17:43.143Z,2.33
2022-10-02T09:20:16.003Z,2.97
2022-10-02T09:25:37.610Z,2.38
2022-10-02T09:28:10.685Z,1.92
2022-10-02T09:30:43.515Z,1.58
2022-10-02T09:33:27.208Z,1.50
2022-10-02T09:36:03.008Z,1.70
2022-10-02T09:39:09.814Z,1.75
2022-10-02T09:41:39.693Z,1.63
2022-10-02T09:44:16.832Z,1.80
2022-10-02T09:47:15.408Z,2.20
2022-10-02T09:50:15.064Z,1.95
2022-10-02T09:52:52.533Z,2.45
2022-10-02T09:55:37.472Z,2.10
2022-10-02T09:58:32.416Z,2.40
2022-10-02T10:01:31.432Z,1.70
2022-10-02T10:04:22.707Z,1.90
2022-10-02T10:07:11.318Z,1.65
2022-10-02T10:09:47.278Z,2.03
2022-10-02T10:12:37.397Z,2.13
2022-10-02T10:15:40.720Z,2.03
2022-10-02T10:18:39.446Z,1.90
2022-10-02T10:21:32.220Z,2.33
2022-10-02T10:24:23.432Z,2.17
2022-10-02T10:27:13.324Z,2.50
2022-10-02T10:30:06.093Z,2.38
2022-10-02T10:33:05.365Z,2.35
2022-10-02T10:36:04.228Z,2.35
2022-10-02T10:38:40.112Z,2.65
2022-10-02T10:41:10.341Z,2.30
2022-10-02T10:43:52.382Z,2.45
2022-10-02T10:46:41.152Z,2.30
2022-10-02T10:49:19.314Z,2.97
2022-10-02T10:51:59.352Z,2.40
2022-10-02T10:54:53.019Z,2.83
2022-10-02T10:57:34.946Z,2.80
2022-10-02T11:00:47.643Z,2.28
2022-10-02T11:03:52.351Z,3.35
2022-10-02T11:06:51.875Z,2.58
2022-10-02T11:09:37.568Z,3.17
2022-10-02T11:12:21.616Z,2.85
2022-10-02T11:15:17.725Z,2.97
2022-10-02T11:18:05.264Z,3.08
2022-10-02T11:20:57.964Z,2.83
2022-10-02T11:23:34.618Z,2.95
2022-10-02T11:26:13.338Z,2.75
2022-10-02T11:29:00.237Z,3.50
2022-10-02T11:31:37.769Z,2.58
2022-10-02T11:34:26.246Z,2.58
2022-10-02T11:37:12.225Z,2.40
2022-10-02T11:40:00.333Z,1.85
2022-10-02T11:42:58.942Z,2.35
2022-10-02T11:45:43.764Z,2.30
2022-10-02T11:48:41.448Z,2.78
2022-10-02T11:51:14.107Z,2.08
2022-10-02T11:54:13.294Z,2.47
2022-10-02T11:57:17.644Z,2.55
2022-10-02T12:00:05.971Z,1.88
2022-10-02T12:02:55.080Z,2.63
2022-10-02T12:05:46.218Z,2.63
2022-10-02T12:08:44.422Z,2.85
2022-10-02T12:11:15.191Z,2.25
2022-10-02T12:13:48.120Z,3.38
2022-10-02T12:16:39.402Z,2.70
2022-10-02T12:19:27.598Z,2.95
2022-10-02T12:22:39.152Z,2.72
2022-10-02T12:25:39.981Z,2.67
2022-10-02T12:28:20.204Z,2.72
2022-10-02T12:31:10.114Z,2.45
2022-10-02T12:33:59.908Z,2.40
2022-10-02T12:37:29.708Z,2.22
2022-10-02T12:40:13.649Z,2.17
2022-10-02T12:42:55.305Z,2.40
2022-10-02T12:45:44.040Z,2.63
2022-10-02T12:48:37.040Z,3.05
2022-10-02T12:51:22.536Z,2.58
2022-10-02T12:54:27.112Z,2.20
2022-10-02T12:57:45.907Z,3.45
2022-10-02T13:00:25.173Z,3.47
2022-10-02T13:03:13.760Z,3.28
2022-10-02T13:05:53.444Z,3.38
2022-10-02T13:08:20.569Z,3.63
2022-10-02T13:11:21.121Z,2.92
2022-10-02T13:14:11.348Z,3.22
2022-10-02T13:17:00.309Z,3.15
2022-10-02T13:19:33.159Z,3.38
2022-10-02T13:24:39.742Z,2.97
2022-10-02T13:27:09.988Z,3.67
2022-10-02T13:30:10.701Z,3.08
2022-10-02T13:32:43.310Z,2.97
2022-10-02T13:35:29.202Z,3.50
2022-10-02T13:38:24.645Z,3.88
2022-10-02T13:41:13.240Z,3.00
2022-10-02T13:43:56.414Z,2.47
2022-10-02T13:46:33.984Z,3.05
2022-10-02T13:49:15.869Z,3.58
2022-10-02T13:51:52.925Z,2.90
2022-10-02T13:54:29.946Z,3.47
2022-10-02T13:57:31.212Z,3.13
2022-10-02T14:00:04.076Z,2.95
2022-10-02T14:02:45.883Z,3.45
2022-10-02T14:05:37.983Z,2.80
2022-10-02T14:08:26.612Z,2.78
2022-10-02T14:11:05.373Z,2.95
2022-10-02T14:13:51.312Z,2.95
2022-10-02T14:16:30.582Z,2.83
2022-10-02T14:19:13.207Z,3.22
2022-10-02T14:21:53.569Z,3.47
2022-10-02T14:25:00.278Z,2.88
2022-10-02T14:27:45.257Z,3.25
2022-10-02T14:30:31.591Z,2.35
2022-10-02T14:33:17.392Z,2.97
2022-10-02T14:36:02.020Z,3.08
2022-10-02T14:38:32.092Z,3.10
2022-10-02T14:41:10.885Z,2.97
2022-10-02T14:44:08.724Z,3.13
2022-10-02T14:46:36.079Z,3.40
2022-10-02T14:49:20.881Z,2.78
2022-10-02T14:52:11.550Z,3.75
2022-10-02T14:54:56.375Z,2.83
2022-10-02T14:57:45.315Z,3.17
2022-10-02T15:00:21.648Z,3.42
2022-10-02T15:02:54.691Z,2.88
2022-10-02T15:05:42.805Z,3.20
2022-10-02T15:08:16.621Z,3.05
2022-10-02T15:10:52.041Z,3.47
2022-10-02T15:13:47.853Z,2.67
2022-10-02T15:16:39.994Z,3.20
2022-10-02T15:19:16.899Z,3.13
2022-10-02T15:21:54.024Z,4.20
2022-10-02T15:24:44.065Z,3.55
2022-10-02T15:27:29.615Z,3.22
2022-10-02T15:30:22.585Z,3.70
2022-10-02T15:32:52.488Z,3.33
2022-10-02T15:35:27.443Z,3.85
2022-10-02T15:38:09.242Z,4.10
2022-10-02T15:40:56.523Z,3.45
2022-10-02T15:43:42.181Z,3.10
2022-10-02T15:46:37.403Z,4.53
2022-10-02T15:49:17.411Z,3.63
2022-10-02T15:52:20.092Z,3.22
2022-10-02T15:54:58.584Z,4.38
2022-10-02T15:57:43.930Z,3.33
2022-10-02T16:03:19.426Z,3.65
2022-10-02T16:05:52.317Z,3.42
2022-10-02T16:08:50.517Z,3.30
2022-10-02T16:11:44.020Z,3.85
2022-10-02T16:14:27.512Z,3.53
2022-10-02T16:17:03.700Z,3.65
2022-10-02T16:19:39.490Z,3.65
2022-10-02T16:22:45.850Z,4.15
2022-10-02T16:25:30.707Z,4.03
2022-10-02T16:28:16.318Z,3.78
2022-10-02T16:30:53.133Z,4.05
2022-10-02T16:33:52.555Z,3.83
2022-10-02T16:36:33.658Z,3.50
2022-10-02T16:39:22.024Z,3.72
2022-10-02T16:42:13.681Z,3.63
2022-10-02T16:44:58.756Z,6.82
2022-10-02T16:48:00.823Z,7.78
2022-10-02T16:51:14.333Z,5.35
2022-10-02T16:54:02.561Z,6.15
2022-10-02T16:56:51.411Z,4.63
2022-10-02T16:59:27.082Z,4.30
2022-10-02T17:02:18.149Z,3.83
2022-10-02T17:04:55.130Z,4.00
2022-10-02T17:07:37.413Z,3.63
2022-10-02T17:10:07.358Z,4.15
2022-10-02T17:12:58.149Z,4.10
2022-10-02T17:15:48.019Z,4.18
2022-10-02T17:18:27.828Z,4.00
2022-10-02T17:21:03.857Z,4.90
2022-10-02T17:23:49.198Z,4.50
2022-10-02T17:26:32.288Z,4.38
2022-10-02T17:29:26.652Z,3.53
2022-10-02T17:32:01.523Z,4.20
2022-10-02T17:34:49.295Z,4.85
2022-10-02T17:37:20.954Z,5.15
2022-10-02T17:40:03.209Z,4.30
2022-10-02T17:42:47.038Z,5.00
2022-10-02T17:45:36.088Z,4.95
2022-10-02T17:48:38.953Z,6.45
2022-10-02T17:51:47.580Z,4.70
2022-10-02T17:54:53.802Z,5.03
2022-10-02T17:57:41.789Z,5.03
2022-10-02T18:00:20.880Z,4.57
2022-10-02T18:03:03.631Z,4.57
2022-10-02T18:05:54.500Z,4.38
2022-10-02T18:08:38.109Z,5.50
2022-10-02T18:11:29.593Z,4.70
2022-10-02T18:14:02.530Z,6.30
2022-10-02T18:17:06.450Z,5.82
2022-10-02T18:19:55.987Z,5.70
2022-10-02T18:22:55.675Z,4.13
2022-10-02T18:25:34.578Z,5.95
2022-10-02T18:28:27.452Z,4.85
2022-10-02T18:31:07.011Z,4.97
2022-10-02T18:34:06.735Z,3.88
2022-10-02T18:36:34.995Z,4.63
2022-10-02T18:39:12.881Z,4.43
2022-10-02T18:42:08.651Z,5.00
2022-10-02T18:44:45.400Z,4.32
2022-10-02T18:47:26.259Z,4.00
2022-10-02T18:49:55.999Z,3.92
2022-10-02T18:52:57.899Z,3.67
2022-10-02T18:55:48.842Z,4.47
2022-10-02T18:58:20.161Z,5.07
2022-10-02T19:01:10.881Z,4.80
2022-10-02T19:03:52.022Z,4.47
2022-10-02T19:06:29.725Z,4.32
2022-10-02T19:09:08.640Z,4.78
2022-10-02T19:11:46.977Z,4.13
2022-10-02T19:14:34.257Z,4.18
2022-10-02T19:17:08.737Z,3.65
2022-10-02T19:19:36.885Z,3.90
2022-10-02T19:22:24.257Z,4.18
2022-10-02T19:25:06.340Z,4.28
2022-10-02T19:27:36.167Z,3.20
2022-10-02T19:30:20.751Z,3.95
2022-10-02T19:32:51.028Z,3.95
2022-10-02T19:35:28.511Z,3.78
2022-10-02T19:38:08.287Z,4.05
2022-10-02T19:40:36.512Z,4.70
2022-10-02T19:43:14.694Z,4.60
2022-10-02T19:45:47.224Z,3.92
2022-10-02T19:48:18.854Z,3.17
2022-10-02T19:50:58.263Z,3.90
2022-10-02T19:53:51.158Z,4.18
2022-10-02T19:56:24.801Z,3.75
2022-10-02T19:58:58.641Z,4.95
2022-10-02T20:01:28.580Z,3.58
2022-10-02T20:03:58.700Z,3.67
2022-10-02T20:06:28.867Z,3.72
2022-10-02T20:09:03.355Z,3.58
2022-10-02T20:11:39.796Z,3.78
2022-10-02T20:14:39.884Z,3.97
2022-10-02T20:17:09.399Z,4.30
2022-10-02T20:19:51.857Z,3.90
2022-10-02T20:22:36.876Z,3.65
2022-10-02T20:25:09.304Z,3.00
2022-10-02T20:28:00.282Z,4.20
2022-10-02T20:30:35.453Z,3.80
2022-10-02T20:33:20.888Z,3.17
2022-10-02T20:35:56.389Z,3.83
2022-10-02T20:38:31.347Z,3.45
2022-10-02T20:41:01.415Z,3.15
2022-10-02T20:43:33.507Z,3.33
2022-10-02T20:46:38.079Z,3.53
2022-10-02T20:49:35.291Z,3.22
2022-10-02T20:52:34.767Z,3.03
2022-10-02T20:55:11.096Z,3.20
2022-10-02T20:58:06.022Z,3.80
2022-10-02T21:01:13.416Z,2.42
2022-10-02T21:04:24.743Z,3.30
2022-10-02T21:07:15.322Z,2.42
2022-10-02T21:10:07.856Z,3.47
2022-10-02T21:12:52.771Z,3.08
2022-10-02T21:15:39.358Z,6.25
2022-10-02T21:18:46.242Z,5.40
2022-10-02T21:21:31.723Z,5.38
2022-10-02T21:24:11.472Z,23.75
2022-10-02T21:27:02.275Z,39.17
2022-10-02T21:29:47.572Z,20.75
2022-10-02T21:33:03.697Z,14.38
2022-10-02T21:35:40.267Z,16.65
2022-10-02T21:38:11.471Z,21.50
2022-10-02T21:40:54.455Z,18.38
2022-10-02T21:46:06.346Z,7.47
2022-10-02T21:51:28.021Z,5.20
2022-10-02T21:54:21.847Z,7.43
2022-10-02T21:57:45.808Z,7.47
2022-10-02T22:00:19.127Z,7.15
2022-10-02T22:03:16.544Z,4.90
2022-10-02T22:05:57.645Z,3.50
2022-10-02T22:08:36.605Z,3.75
2022-10-02T22:11:50.292Z,3.15
2022-10-02T22:14:31.473Z,3.53
2022-10-02T22:17:16.287Z,3.88
2022-10-02T22:20:15.177Z,3.40
2022-10-02T22:23:17.431Z,2.90
2022-10-02T22:26:25.597Z,2.65
2022-10-02T22:29:03.360Z,2.78
2022-10-02T22:31:51.799Z,3.25
2022-10-02T22:34:27.958Z,2.85
2022-10-02T22:37:42.482Z,2.53
2022-10-02T22:40:18.223Z,2.75
2022-10-02T22:43:15.556Z,2.97
2022-10-02T22:45:46.625Z,2.72
2022-10-02T22:48:22.862Z,2.78
2022-10-02T22:51:00.184Z,3.35
2022-10-02T22:53:34.082Z,2.88
2022-10-02T22:56:01.600Z,2.95
2022-10-02T22:58:34.728Z,2.97
2022-10-02T23:01:12.190Z,2.55
2022-10-02T23:04:00.268Z,2.45
2022-10-02T23:06:54.956Z,3.17
2022-10-02T23:09:26.938Z,3.58
2022-10-02T23:12:16.722Z,2.47
2022-10-02T23:15:20.390Z,3.13
2022-10-02T23:17:58.246Z,3.20
2022-10-02T23:20:44.359Z,2.97
2022-10-02T23:23:28.415Z,2.72
2022-10-02T23:26:30.143Z,2.10
2022-10-02T23:29:13.415Z,2.80
2022-10-02T23:31:49.630Z,2.40
2022-10-02T23:34:37.748Z,2.70
2022-10-02T23:37:26.018Z,3.13
2022-10-02T23:40:17.705Z,2.55
2022-10-02T23:42:54.788Z,2.40
2022-10-02T23:45:21.636Z,3.05
2022-10-02T23:47:58.263Z,3.00
2022-10-02T23:50:49.815Z,2.45
2022-10-02T23:53:55.276Z,2.30
2022-10-02T23:56:47.085Z,3.00
2022-10-02T23:59:32.974Z,2.53
